ΕΜΥ, Εθνική Μετεωρολογική Υπηρεσία - Δελτία Καιρού, Προγνώσεις

ΑΕΡΟΝΑΥΤΙΛΙΑ

GREEK AIRPORTS CODES

LGMG 021400Z 00000KT 9999 FEW018TCU SCT025 22/10 Q1008 RMK SCT080=

EUROPEAN AIRPORTS CODES

LGEL 021420Z /////KT 9999 FEW018TCU SCT025 22/12 Q1007 RMK FEW080 16012KTPE=